createdAt,value
2023-03-17T00:39:42.021Z,33.59
2023-03-17T00:41:41.984Z,39.12
2023-03-17T00:42:41.971Z,36.52
2023-03-17T00:43:41.939Z,37.51
2023-03-17T00:44:41.926Z,37.29
2023-03-17T00:45:41.931Z,38.01
2023-03-17T00:46:42.184Z,34.15
2023-03-17T00:47:41.865Z,36.86
2023-03-17T00:48:41.874Z,37.12
2023-03-17T00:49:41.830Z,36.17
2023-03-17T02:07:40.495Z,31.21
2023-03-17T02:59:40.220Z,22.54
2023-03-17T03:00:40.195Z,22.20
2023-03-17T03:01:40.218Z,17.62
2023-03-17T03:02:40.267Z,15.73
2023-03-17T03:03:40.153Z,21.96
2023-03-17T03:04:40.164Z,22.55
2023-03-17T03:05:40.123Z,24.41
2023-03-17T03:06:40.118Z,23.20
2023-03-17T03:07:40.111Z,24.11
2023-03-17T03:08:40.088Z,24.18
2023-03-17T03:09:40.082Z,22.22
2023-03-17T03:10:40.069Z,26.17
2023-03-17T03:11:40.059Z,22.88
2023-03-17T03:12:40.040Z,27.02
2023-03-17T03:13:40.027Z,25.00
2023-03-17T03:14:40.023Z,26.13
2023-03-17T03:15:40.038Z,27.65
2023-03-17T03:16:39.974Z,25.37
2023-03-17T03:17:39.963Z,25.16
2023-03-17T03:18:39.933Z,23.96
2023-03-17T03:19:39.924Z,25.00
2023-03-17T03:20:39.914Z,25.00
2023-03-17T03:21:39.874Z,25.00
2023-03-17T03:22:39.905Z,26.70
2023-03-17T03:23:39.851Z,26.92
2023-03-17T03:24:39.870Z,25.00
2023-03-17T03:25:39.841Z,22.87
2023-03-17T03:26:39.824Z,25.93
2023-03-17T03:27:39.820Z,27.63
2023-03-17T03:28:39.822Z,32.47
2023-03-17T03:29:39.800Z,27.39
2023-03-17T03:30:39.784Z,25.22
2023-03-17T03:31:39.770Z,15.74
2023-03-17T03:32:39.771Z,19.74
2023-03-17T03:33:39.765Z,14.06
2023-03-17T03:34:39.771Z,0.00
2023-03-17T03:35:39.741Z,0.00
2023-03-17T03:36:39.734Z,27.97
2023-03-17T03:37:39.703Z,36.30
2023-03-17T03:38:39.701Z,31.42
2023-03-17T03:39:39.697Z,38.88
2023-03-17T03:40:39.711Z,33.14
2023-03-17T03:41:39.694Z,25.00
2023-03-17T03:42:39.672Z,29.06
2023-03-17T03:43:39.669Z,28.52
2023-03-17T03:44:39.674Z,29.58
2023-03-17T03:45:39.651Z,30.35
2023-03-17T03:46:39.718Z,26.53
2023-03-17T03:47:39.635Z,32.45
2023-03-17T03:48:39.625Z,25.00
2023-03-17T03:49:39.620Z,28.70
2023-03-17T03:50:39.614Z,37.20
2023-03-17T03:51:39.609Z,31.08
2023-03-17T03:52:39.588Z,25.00
2023-03-17T03:53:39.585Z,26.15
2023-03-17T03:54:39.590Z,25.00
2023-03-17T03:55:39.588Z,30.79
2023-03-17T03:56:39.554Z,33.12
2023-03-17T03:57:39.552Z,35.89
2023-03-17T03:58:39.533Z,28.34
2023-03-17T03:59:39.524Z,25.00
2023-03-17T04:00:39.523Z,26.19
2023-03-17T04:01:39.496Z,30.75
2023-03-17T04:02:39.519Z,27.46
2023-03-17T04:03:39.493Z,44.52
2023-03-17T04:04:39.599Z,46.40
2023-03-17T04:05:39.470Z,55.41
2023-03-17T04:06:39.471Z,60.90
2023-03-17T04:07:39.445Z,70.63
2023-03-17T04:08:39.448Z,57.11
2023-03-17T04:09:39.452Z,42.19
2023-03-17T04:10:39.452Z,45.39
2023-03-17T04:11:39.440Z,60.95
2023-03-17T04:12:39.437Z,58.95
2023-03-17T04:13:39.417Z,48.30
2023-03-17T04:14:39.409Z,49.41
2023-03-17T04:15:39.414Z,61.62
2023-03-17T04:16:41.579Z,56.02
2023-03-17T04:17:39.398Z,56.21
2023-03-17T04:18:39.486Z,56.75
2023-03-17T04:19:39.390Z,59.36
2023-03-17T04:20:39.363Z,56.04
2023-03-17T04:21:39.357Z,64.29
2023-03-17T04:22:39.366Z,64.13
2023-03-17T04:23:39.359Z,53.76
2023-03-17T04:24:39.357Z,52.05
2023-03-17T04:25:39.347Z,55.40
2023-03-17T04:26:39.356Z,50.30
2023-03-17T04:27:39.329Z,43.16
2023-03-17T04:28:39.331Z,45.96
2023-03-17T04:29:39.309Z,47.23
2023-03-17T04:30:39.311Z,50.07
2023-03-17T04:31:39.324Z,49.89
2023-03-17T04:32:39.408Z,53.44
2023-03-17T04:33:39.296Z,51.82
2023-03-17T04:34:39.283Z,56.46
2023-03-17T04:35:39.284Z,48.85
2023-03-17T04:36:39.273Z,39.88
2023-03-17T04:37:39.258Z,49.06
2023-03-17T04:38:39.260Z,43.73
2023-03-17T04:39:39.245Z,46.90
2023-03-17T04:40:39.255Z,51.28
2023-03-17T04:41:39.246Z,45.78
2023-03-17T04:42:39.239Z,46.32
2023-03-17T04:43:39.226Z,39.90
2023-03-17T04:44:39.230Z,41.21
2023-03-17T04:45:39.259Z,33.62
2023-03-17T04:46:39.225Z,40.98
2023-03-17T04:47:39.212Z,36.19
2023-03-17T04:48:39.217Z,44.22
2023-03-17T04:49:39.199Z,41.13
2023-03-17T04:50:39.203Z,40.92
2023-03-17T04:51:39.193Z,43.27
2023-03-17T04:52:39.176Z,41.01
2023-03-17T04:53:39.169Z,47.25
2023-03-17T04:54:39.178Z,32.07
2023-03-17T04:55:39.185Z,42.74
2023-03-17T04:56:39.169Z,30.49
2023-03-17T04:57:39.168Z,31.26
2023-03-17T04:58:39.145Z,26.83
2023-03-17T04:59:39.151Z,30.77
2023-03-17T05:00:39.145Z,36.04
2023-03-17T05:01:39.380Z,39.69
2023-03-17T05:02:39.280Z,47.10
2023-03-17T05:03:39.124Z,36.97
2023-03-17T05:04:39.093Z,40.89
2023-03-17T05:05:39.094Z,42.55
2023-03-17T05:06:39.090Z,35.02
2023-03-17T05:07:39.091Z,39.05
2023-03-17T05:08:39.090Z,51.08
2023-03-17T05:09:39.064Z,58.49
2023-03-17T05:10:39.062Z,51.43
2023-03-17T05:11:39.039Z,50.43
2023-03-17T05:12:39.037Z,39.95
2023-03-17T05:13:39.010Z,40.79
2023-03-17T05:14:39.002Z,47.35
2023-03-17T05:15:39.001Z,51.24
2023-03-17T05:16:39.046Z,60.95
2023-03-17T05:17:38.981Z,82.81
2023-03-17T05:18:38.963Z,83.79
2023-03-17T05:19:38.970Z,64.68
2023-03-17T05:20:38.957Z,70.23
2023-03-17T05:21:38.947Z,72.62
2023-03-17T05:22:38.956Z,67.02
2023-03-17T05:23:38.946Z,59.67
2023-03-17T05:24:38.922Z,61.90
2023-03-17T05:25:38.924Z,59.07
2023-03-17T05:26:38.951Z,58.14
2023-03-17T05:27:38.914Z,67.83
2023-03-17T05:28:38.892Z,59.96
2023-03-17T05:29:38.888Z,56.03
2023-03-17T05:30:38.921Z,57.45
2023-03-17T05:31:38.879Z,61.16
2023-03-17T05:32:38.882Z,51.36
2023-03-17T05:33:38.847Z,39.43
2023-03-17T05:34:38.833Z,39.71
2023-03-17T05:35:38.838Z,43.08
2023-03-17T05:36:38.859Z,42.24
2023-03-17T05:37:38.837Z,39.21
2023-03-17T05:38:38.825Z,42.80
2023-03-17T05:39:38.834Z,46.83
2023-03-17T05:40:38.814Z,47.41
2023-03-17T05:41:38.812Z,41.26
2023-03-17T05:42:38.810Z,42.50
2023-03-17T05:43:38.806Z,37.14
2023-03-17T05:44:38.798Z,23.14
2023-03-17T05:45:38.790Z,32.80
2023-03-17T05:46:38.790Z,35.14
2023-03-17T05:47:38.756Z,39.93
2023-03-17T05:48:38.750Z,43.52
2023-03-17T05:49:38.780Z,36.61
2023-03-17T05:50:38.747Z,33.08
2023-03-17T05:51:38.749Z,25.00
2023-03-17T05:52:38.722Z,26.44
2023-03-17T05:53:38.722Z,28.57
2023-03-17T05:54:38.717Z,40.54
2023-03-17T05:55:38.698Z,27.51
2023-03-17T05:56:38.693Z,30.69
2023-03-17T05:57:38.692Z,28.31
2023-03-17T05:58:38.670Z,36.95
2023-03-17T05:59:38.685Z,39.42
2023-03-17T06:00:38.666Z,40.55
2023-03-17T06:01:38.667Z,37.50
2023-03-17T06:02:38.682Z,39.87
2023-03-17T06:03:38.738Z,34.74
2023-03-17T06:04:38.653Z,31.84
2023-03-17T06:05:38.652Z,39.19
2023-03-17T06:06:38.647Z,40.28
2023-03-17T06:07:51.684Z,49.61
2023-03-17T06:08:39.681Z,49.77
2023-03-17T06:09:38.641Z,50.88
2023-03-17T06:10:38.634Z,49.91
2023-03-17T06:11:38.631Z,54.23
2023-03-17T06:12:38.629Z,66.65
2023-03-17T06:13:38.623Z,57.39
2023-03-17T06:14:38.614Z,50.56
2023-03-17T06:15:38.640Z,25.82
2023-03-17T06:16:38.610Z,67.43
2023-03-17T06:17:38.615Z,68.36
2023-03-17T06:18:38.596Z,75.48
2023-03-17T06:19:38.601Z,69.62
2023-03-17T06:20:38.590Z,79.52
2023-03-17T06:21:38.600Z,104.87
2023-03-17T06:22:42.337Z,149.97
2023-03-17T06:23:39.569Z,72.06
2023-03-17T06:24:38.564Z,88.29
2023-03-17T06:25:38.566Z,72.04
2023-03-17T06:26:38.560Z,91.09
2023-03-17T06:27:38.549Z,130.46
2023-03-17T06:28:38.531Z,186.88
2023-03-17T06:29:38.537Z,268.99
2023-03-17T06:30:40.627Z,250.61
2023-03-17T06:31:38.539Z,243.06
2023-03-17T06:32:38.589Z,247.71
2023-03-17T06:33:38.526Z,250.00
2023-03-17T06:34:38.516Z,248.70
2023-03-17T06:35:38.560Z,253.28
2023-03-17T06:36:38.666Z,250.00
2023-03-17T06:37:38.521Z,251.57
2023-03-17T06:38:38.470Z,250.00
2023-03-17T06:39:38.524Z,239.38
2023-03-17T06:40:38.637Z,233.30
2023-03-17T06:41:38.634Z,239.58
2023-03-17T06:42:38.693Z,244.31
2023-03-17T06:43:38.728Z,246.09
2023-03-17T06:44:38.785Z,250.00
2023-03-17T06:45:38.878Z,250.58
2023-03-17T06:46:38.926Z,242.58
2023-03-17T06:47:38.937Z,247.94
2023-03-17T06:48:39.024Z,242.67
2023-03-17T06:49:39.060Z,250.00
2023-03-17T06:50:39.113Z,245.48
2023-03-17T06:51:39.159Z,224.73
2023-03-17T06:52:39.225Z,201.79
2023-03-17T06:53:39.374Z,174.95
2023-03-17T06:54:39.325Z,149.27
2023-03-17T06:55:39.371Z,141.31
2023-03-17T06:56:39.425Z,131.32
2023-03-17T06:57:39.501Z,143.13
2023-03-17T06:58:39.549Z,169.82
2023-03-17T06:59:39.585Z,185.34
2023-03-17T07:00:39.654Z,205.37
2023-03-17T07:01:39.766Z,192.89
2023-03-17T07:02:39.778Z,183.35
2023-03-17T07:03:39.816Z,169.75
2023-03-17T07:04:39.922Z,135.53
2023-03-17T07:05:39.928Z,124.45
2023-03-17T07:06:39.981Z,112.79
2023-03-17T07:07:40.058Z,107.00
2023-03-17T07:08:40.113Z,107.26
2023-03-17T07:09:40.164Z,100.01
2023-03-17T07:10:40.222Z,105.85
2023-03-17T07:11:40.312Z,111.28
2023-03-17T07:12:40.349Z,122.82
2023-03-17T07:13:40.405Z,150.66
2023-03-17T07:14:40.453Z,171.98
2023-03-17T07:15:40.501Z,198.12
2023-03-17T07:16:40.588Z,198.52
2023-03-17T07:17:40.516Z,200.90
2023-03-17T07:18:40.489Z,211.66
2023-03-17T07:19:40.489Z,231.74
2023-03-17T07:20:40.474Z,265.69
2023-03-17T07:21:40.473Z,263.96
2023-03-17T07:22:40.472Z,257.46
2023-03-17T07:23:41.424Z,251.93
2023-03-17T07:24:40.439Z,250.00
2023-03-17T07:25:40.430Z,248.56
2023-03-17T07:26:40.414Z,249.69
2023-03-17T07:27:40.418Z,250.00
2023-03-17T07:28:40.415Z,248.70
2023-03-17T07:29:40.403Z,250.00
2023-03-17T07:30:40.396Z,250.00
2023-03-17T07:31:41.303Z,249.74
2023-03-17T07:32:40.372Z,249.12
2023-03-17T07:33:40.326Z,250.00
2023-03-17T07:34:40.341Z,250.21
2023-03-17T07:35:40.318Z,250.79
2023-03-17T07:36:40.299Z,252.82
2023-03-17T07:37:40.288Z,254.52
2023-03-17T07:38:40.281Z,254.16
2023-03-17T07:39:40.266Z,248.47
2023-03-17T07:40:40.277Z,248.62
2023-03-17T07:41:40.270Z,248.65
2023-03-17T07:42:40.232Z,249.73
2023-03-17T07:43:40.237Z,254.24
2023-03-17T07:44:40.366Z,256.09
2023-03-17T07:45:40.240Z,248.70
2023-03-17T07:46:40.183Z,250.12
2023-03-17T07:47:40.162Z,250.34
2023-03-17T07:48:40.160Z,248.88
2023-03-17T07:49:42.135Z,249.63
2023-03-17T07:50:40.144Z,249.64
2023-03-17T07:51:40.132Z,248.78
2023-03-17T07:52:40.113Z,249.96
2023-03-17T07:53:40.088Z,249.32
2023-03-17T07:54:42.755Z,249.59
2023-03-17T07:55:40.109Z,248.80
2023-03-17T07:56:40.054Z,249.28
2023-03-17T07:57:40.134Z,250.00
2023-03-17T07:58:40.055Z,249.17
2023-03-17T07:59:40.089Z,248.44
2023-03-17T08:00:40.031Z,247.86
2023-03-17T08:01:40.080Z,247.95
2023-03-17T08:02:40.119Z,247.95
2023-03-17T08:03:41.453Z,247.02
2023-03-17T08:04:39.987Z,244.96
2023-03-17T08:05:39.957Z,242.59
2023-03-17T08:06:39.960Z,240.71
2023-03-17T08:07:39.923Z,239.65
2023-03-17T08:08:39.900Z,237.77
2023-03-17T08:09:39.904Z,235.76
2023-03-17T08:10:39.910Z,237.04
2023-03-17T08:11:39.869Z,233.31
2023-03-17T08:12:39.860Z,232.08
2023-03-17T08:13:39.854Z,229.28
2023-03-17T08:14:39.846Z,229.66
2023-03-17T08:15:39.836Z,227.71
2023-03-17T08:16:39.934Z,227.11
2023-03-17T08:17:39.834Z,227.91
2023-03-17T08:18:39.785Z,224.68
2023-03-17T08:19:39.816Z,225.86
2023-03-17T08:20:39.783Z,223.41
2023-03-17T08:21:39.784Z,221.23
2023-03-17T08:22:39.779Z,220.35
2023-03-17T08:23:39.799Z,220.50
2023-03-17T08:24:39.779Z,220.22
2023-03-17T08:25:39.741Z,220.38
2023-03-17T08:26:39.709Z,214.44
2023-03-17T08:27:39.679Z,216.80
2023-03-17T08:28:39.649Z,218.10
2023-03-17T08:29:39.651Z,217.09
2023-03-17T08:30:40.180Z,214.57
2023-03-17T08:31:39.625Z,217.81
2023-03-17T08:32:39.664Z,217.46
2023-03-17T08:33:39.568Z,217.45
2023-03-17T08:34:39.570Z,215.37
2023-03-17T08:35:39.645Z,210.01
2023-03-17T08:36:39.552Z,207.77
2023-03-17T08:37:39.515Z,206.96
2023-03-17T08:38:39.499Z,202.60
2023-03-17T08:39:39.484Z,204.74
2023-03-17T08:40:39.453Z,203.15
2023-03-17T08:41:39.437Z,208.75
2023-03-17T08:42:39.422Z,208.01
2023-03-17T08:43:39.415Z,208.77
2023-03-17T08:44:39.406Z,208.83
2023-03-17T08:45:39.409Z,209.11
2023-03-17T08:46:39.375Z,208.76
2023-03-17T08:47:39.350Z,206.21
2023-03-17T08:48:39.348Z,208.80
2023-03-17T08:49:39.326Z,209.25
2023-03-17T08:50:39.309Z,208.79
2023-03-17T08:51:39.294Z,206.47
2023-03-17T08:52:39.271Z,207.61
2023-03-17T08:53:39.325Z,208.49
2023-03-17T08:54:39.222Z,206.77
2023-03-17T08:55:39.199Z,205.71
2023-03-17T08:56:39.199Z,204.47
2023-03-17T08:57:39.169Z,204.75
2023-03-17T08:58:39.147Z,208.52
2023-03-17T08:59:39.134Z,206.18
2023-03-17T09:00:39.094Z,209.24
2023-03-17T09:01:39.168Z,211.62
2023-03-17T09:02:39.116Z,214.84
2023-03-17T09:03:39.035Z,213.54
2023-03-17T09:04:40.132Z,218.80
2023-03-17T09:05:39.007Z,221.10
2023-03-17T09:06:44.086Z,223.13
2023-03-17T09:07:40.056Z,223.23
2023-03-17T09:08:38.959Z,223.56
2023-03-17T09:09:38.912Z,224.98
2023-03-17T09:10:38.897Z,226.23
2023-03-17T09:11:38.899Z,228.93
2023-03-17T09:12:38.854Z,230.75
2023-03-17T09:13:38.838Z,227.11
2023-03-17T09:14:43.833Z,224.71
2023-03-17T09:15:39.984Z,222.71
2023-03-17T09:16:38.785Z,223.32
2023-03-17T09:17:38.757Z,224.08
2023-03-17T09:18:38.726Z,222.81
2023-03-17T09:19:38.740Z,220.28
2023-03-17T09:20:38.702Z,221.89
2023-03-17T09:21:39.431Z,223.37
2023-03-17T09:22:38.688Z,222.61
2023-03-17T09:23:38.631Z,221.07
2023-03-17T09:24:38.604Z,221.05
2023-03-17T09:25:38.589Z,222.27
2023-03-17T09:26:38.584Z,224.34
2023-03-17T09:27:38.525Z,224.99
2023-03-17T09:28:38.501Z,223.43
2023-03-17T09:29:38.466Z,221.72
2023-03-17T09:30:38.483Z,217.90
2023-03-17T09:31:38.512Z,198.05
2023-03-17T09:32:38.464Z,176.73
2023-03-17T09:33:38.380Z,162.33
2023-03-17T09:34:38.376Z,134.25
2023-03-17T09:35:38.421Z,99.26
2023-03-17T09:36:38.357Z,84.60
2023-03-17T09:37:38.313Z,70.57
2023-03-17T09:38:38.298Z,53.06
2023-03-17T09:39:38.276Z,41.57
2023-03-17T09:40:38.261Z,41.23
2023-03-17T09:41:38.218Z,50.06
2023-03-17T09:42:38.212Z,56.05
2023-03-17T09:43:38.210Z,55.84
2023-03-17T09:44:38.183Z,59.55
2023-03-17T09:45:38.162Z,57.60
2023-03-17T09:46:39.071Z,68.41
2023-03-17T09:47:38.123Z,71.18
2023-03-17T09:48:38.115Z,69.50
2023-03-17T09:49:38.090Z,61.85
2023-03-17T09:50:38.129Z,58.93
2023-03-17T09:51:38.080Z,47.09
2023-03-17T09:52:38.058Z,29.52
2023-03-17T09:53:39.439Z,22.66
2023-03-17T09:54:38.964Z,25.90
2023-03-17T09:55:38.005Z,25.16
2023-03-17T09:56:38.013Z,29.39
2023-03-17T09:57:37.991Z,27.96
2023-03-17T09:58:37.967Z,24.47
2023-03-17T09:59:37.946Z,21.52
2023-03-17T10:00:37.925Z,26.92
2023-03-17T10:01:38.003Z,25.71
2023-03-17T10:02:37.906Z,30.04
2023-03-17T10:03:38.439Z,26.55
2023-03-17T10:04:37.876Z,25.00
2023-03-17T10:05:37.897Z,31.48
2023-03-17T10:06:37.882Z,27.55
2023-03-17T10:07:37.860Z,28.13
2023-03-17T10:08:37.859Z,24.81
2023-03-17T10:09:37.846Z,27.56
2023-03-17T10:10:37.838Z,26.02
2023-03-17T10:11:37.830Z,25.06
2023-03-17T10:12:37.830Z,29.36
2023-03-17T10:13:37.802Z,23.80
2023-03-17T10:14:37.799Z,25.90
2023-03-17T10:15:37.795Z,25.40
2023-03-17T10:16:37.825Z,25.92
2023-03-17T10:17:37.828Z,26.41
2023-03-17T10:18:37.777Z,26.99
2023-03-17T10:19:37.796Z,25.77
2023-03-17T10:20:37.744Z,25.00
2023-03-17T10:21:37.746Z,23.45
2023-03-17T10:22:37.772Z,25.41
2023-03-17T10:23:37.735Z,25.60
2023-03-17T10:24:37.723Z,29.39
2023-03-17T10:25:37.750Z,29.54
2023-03-17T10:26:37.739Z,31.57
2023-03-17T10:27:37.723Z,38.74
2023-03-17T10:28:37.710Z,39.29
2023-03-17T10:29:37.719Z,34.78
2023-03-17T10:30:37.753Z,31.26
2023-03-17T10:31:37.769Z,30.83
2023-03-17T10:32:37.818Z,29.61
2023-03-17T10:33:37.754Z,25.85
2023-03-17T10:34:38.208Z,25.00
2023-03-17T10:35:37.758Z,29.62
2023-03-17T10:36:37.760Z,32.34
2023-03-17T10:37:37.733Z,42.28
2023-03-17T10:38:37.738Z,44.13
2023-03-17T10:39:37.728Z,44.06
2023-03-17T10:40:37.716Z,41.59
2023-03-17T10:41:37.733Z,35.29
2023-03-17T10:42:37.732Z,32.03
2023-03-17T10:43:37.718Z,25.30
2023-03-17T10:44:37.734Z,29.97
2023-03-17T10:45:40.026Z,18.98
2023-03-17T10:46:37.799Z,43.27
2023-03-17T10:47:37.794Z,62.43
2023-03-17T10:48:37.744Z,71.87
2023-03-17T10:49:37.805Z,89.49
2023-03-17T10:50:37.728Z,108.65
2023-03-17T10:51:37.731Z,127.27
2023-03-17T10:52:37.738Z,143.51
2023-03-17T10:53:37.740Z,153.18
2023-03-17T10:54:37.718Z,150.60
2023-03-17T10:55:37.748Z,150.72
2023-03-17T10:56:37.718Z,150.65
2023-03-17T10:57:37.752Z,153.08
2023-03-17T10:58:37.764Z,161.33
2023-03-17T10:59:37.681Z,176.10
2023-03-17T11:00:37.816Z,151.71
2023-03-17T11:01:37.666Z,155.72
2023-03-17T11:02:37.672Z,163.64
2023-03-17T11:03:37.660Z,176.81
2023-03-17T11:04:37.651Z,195.65
2023-03-17T11:05:39.011Z,192.93
2023-03-17T11:06:37.610Z,195.14
2023-03-17T11:07:37.612Z,199.50
2023-03-17T11:08:37.584Z,208.27
2023-03-17T11:09:37.582Z,195.82
2023-03-17T11:10:37.576Z,195.77
2023-03-17T11:11:37.580Z,170.91
2023-03-17T11:12:37.591Z,153.99
2023-03-17T11:13:37.556Z,149.69
2023-03-17T11:14:37.538Z,149.89
2023-03-17T11:15:37.526Z,146.54
2023-03-17T11:16:37.539Z,145.36
2023-03-17T11:17:37.469Z,138.62
2023-03-17T11:18:37.500Z,137.45
2023-03-17T11:19:37.464Z,124.71
2023-03-17T11:20:37.449Z,110.90
2023-03-17T11:21:37.466Z,115.70
2023-03-17T11:22:37.429Z,121.61
2023-03-17T11:23:37.440Z,116.00
2023-03-17T11:24:37.408Z,103.02
2023-03-17T11:25:37.388Z,98.59
2023-03-17T11:26:37.373Z,95.05
2023-03-17T11:27:37.363Z,86.66
2023-03-17T11:28:37.347Z,86.84
2023-03-17T11:29:37.464Z,86.14
2023-03-17T11:30:37.349Z,93.77
2023-03-17T11:31:37.401Z,92.88
2023-03-17T11:32:37.399Z,82.92
2023-03-17T11:33:37.324Z,90.69
2023-03-17T11:34:37.321Z,96.11
2023-03-17T11:35:37.349Z,83.94
2023-03-17T11:36:37.321Z,69.93
2023-03-17T11:37:37.294Z,84.34
2023-03-17T11:38:37.289Z,110.91
2023-03-17T11:39:37.265Z,138.28
2023-03-17T11:40:37.261Z,151.97
2023-03-17T11:41:37.262Z,136.67
2023-03-17T11:42:37.238Z,121.37
2023-03-17T11:43:37.326Z,108.83
2023-03-17T11:44:37.221Z,110.75
2023-03-17T11:45:37.287Z,99.88
2023-03-17T11:46:37.216Z,94.99
2023-03-17T11:47:37.653Z,93.64
2023-03-17T11:48:37.220Z,95.28
2023-03-17T11:49:37.183Z,93.15
2023-03-17T11:50:37.172Z,93.18
2023-03-17T11:51:37.152Z,76.84
2023-03-17T11:52:37.173Z,74.88
2023-03-17T11:53:37.155Z,71.67
2023-03-17T11:54:37.159Z,55.74
2023-03-17T11:55:37.167Z,56.97
2023-03-17T11:56:37.169Z,47.62
2023-03-17T11:57:37.158Z,42.09
2023-03-17T11:58:37.176Z,37.13
2023-03-17T11:59:37.173Z,41.83
2023-03-17T12:00:37.171Z,55.27
2023-03-17T12:01:37.183Z,46.78
2023-03-17T12:02:37.197Z,43.34
2023-03-17T12:03:37.236Z,36.41
2023-03-17T12:04:58.188Z,28.37
2023-03-17T12:05:37.159Z,28.30
2023-03-17T12:06:37.183Z,21.10
2023-03-17T12:07:37.176Z,30.72
2023-03-17T12:08:37.178Z,37.75
2023-03-17T12:09:37.173Z,64.25
2023-03-17T12:10:37.191Z,89.95
2023-03-17T12:11:37.160Z,100.95
2023-03-17T12:12:37.151Z,111.97
2023-03-17T12:13:37.153Z,111.84
2023-03-17T12:14:37.147Z,128.16
2023-03-17T12:15:38.678Z,137.82
2023-03-17T12:16:37.120Z,142.02
2023-03-17T12:17:37.111Z,150.70
2023-03-17T12:18:37.098Z,155.64
2023-03-17T12:19:37.107Z,159.36
2023-03-17T12:20:37.054Z,147.36
2023-03-17T12:21:37.128Z,154.94
2023-03-17T12:22:37.066Z,136.01
2023-03-17T12:23:37.031Z,120.58
2023-03-17T12:24:37.043Z,112.56
2023-03-17T12:25:37.039Z,124.79
2023-03-17T12:26:37.036Z,108.17
2023-03-17T12:27:36.999Z,105.41
2023-03-17T12:28:37.057Z,104.72
2023-03-17T12:29:37.008Z,124.46
2023-03-17T12:30:36.998Z,135.97
2023-03-17T12:31:37.001Z,111.80
2023-03-17T12:32:37.060Z,121.46
2023-03-17T12:33:36.976Z,127.92
2023-03-17T12:34:36.994Z,140.43
2023-03-17T12:35:37.005Z,146.38
2023-03-17T12:36:36.938Z,130.93
2023-03-17T12:37:36.928Z,111.30
2023-03-17T12:38:36.925Z,100.83
2023-03-17T12:39:36.920Z,125.40
2023-03-17T12:40:36.917Z,129.04
2023-03-17T12:41:36.914Z,115.24
2023-03-17T12:42:36.911Z,123.09
2023-03-17T12:43:36.888Z,111.09
2023-03-17T12:44:36.893Z,111.08
2023-03-17T12:45:36.885Z,116.31
2023-03-17T12:46:36.944Z,96.42
2023-03-17T12:47:36.898Z,94.84
2023-03-17T12:48:36.895Z,120.04
2023-03-17T12:49:36.894Z,119.41
2023-03-17T12:50:36.873Z,107.47
2023-03-17T12:51:38.578Z,120.20
2023-03-17T12:52:36.875Z,96.07
2023-03-17T12:53:36.861Z,112.05
2023-03-17T12:54:36.849Z,120.79
2023-03-17T12:55:36.840Z,134.95
2023-03-17T12:56:36.831Z,138.18
2023-03-17T12:57:36.805Z,129.02
2023-03-17T12:58:36.825Z,139.44
2023-03-17T12:59:36.999Z,150.84
2023-03-17T13:00:36.801Z,123.58
2023-03-17T13:01:36.791Z,122.26
2023-03-17T13:02:36.754Z,121.66
2023-03-17T13:03:36.912Z,139.74
2023-03-17T13:04:36.761Z,142.45
2023-03-17T13:05:36.719Z,154.20
2023-03-17T13:06:36.705Z,145.10
2023-03-17T13:07:36.685Z,151.72
2023-03-17T13:08:36.693Z,156.23
2023-03-17T13:09:36.697Z,131.48
2023-03-17T13:10:36.695Z,143.40
2023-03-17T13:11:36.682Z,117.53
2023-03-17T13:12:36.685Z,106.17
2023-03-17T13:13:36.690Z,99.93
2023-03-17T13:14:36.654Z,111.82
2023-03-17T13:15:36.629Z,131.54
2023-03-17T13:16:36.722Z,125.59
2023-03-17T13:17:36.601Z,142.47
2023-03-17T13:18:36.618Z,147.34
2023-03-17T13:19:36.583Z,131.94
2023-03-17T13:20:36.558Z,127.04
2023-03-17T13:21:36.641Z,142.71
2023-03-17T13:22:36.520Z,152.81
2023-03-17T13:23:36.492Z,146.40
2023-03-17T13:24:36.488Z,146.63
2023-03-17T13:25:36.450Z,141.30
2023-03-17T13:26:36.445Z,147.77
2023-03-17T13:27:36.415Z,154.70
2023-03-17T13:28:36.400Z,145.92
2023-03-17T13:29:36.397Z,155.79
2023-03-17T13:30:36.378Z,147.58
2023-03-17T13:31:36.440Z,123.93
2023-03-17T13:32:36.378Z,142.17
2023-03-17T13:33:36.321Z,102.17
2023-03-17T13:34:36.307Z,105.92
2023-03-17T13:35:36.315Z,92.73
2023-03-17T13:36:36.278Z,86.43
2023-03-17T13:37:36.265Z,72.01
2023-03-17T13:38:36.232Z,86.04
2023-03-17T13:39:36.222Z,106.73
2023-03-17T13:40:36.232Z,127.78
2023-03-17T13:41:36.203Z,140.72
2023-03-17T13:42:36.168Z,130.65
2023-03-17T13:43:36.159Z,136.09
2023-03-17T13:44:36.140Z,113.62
2023-03-17T13:45:36.110Z,103.04
2023-03-17T13:46:36.089Z,116.01
2023-03-17T13:47:36.074Z,126.91
2023-03-17T13:48:36.036Z,139.20
2023-03-17T13:49:36.012Z,116.40
2023-03-17T13:50:36.013Z,132.92
2023-03-17T13:51:36.001Z,142.24
2023-03-17T13:52:35.947Z,137.39
2023-03-17T13:53:35.920Z,115.26
2023-03-17T13:54:35.907Z,85.44
2023-03-17T13:55:35.961Z,90.93
2023-03-17T13:56:35.850Z,84.99
2023-03-17T13:57:35.835Z,104.75
2023-03-17T13:58:35.836Z,117.48
2023-03-17T13:59:35.800Z,125.77
2023-03-17T14:00:35.837Z,139.57
2023-03-17T14:01:35.763Z,141.98
2023-03-17T14:02:35.745Z,147.94
2023-03-17T14:03:35.778Z,155.13
2023-03-17T14:04:35.706Z,160.76
2023-03-17T14:05:35.711Z,161.09
2023-03-17T14:06:35.668Z,168.44
2023-03-17T14:07:35.646Z,174.79
2023-03-17T14:08:35.644Z,181.65
2023-03-17T14:09:35.612Z,187.22
2023-03-17T14:10:35.604Z,196.65
2023-03-17T14:11:35.575Z,201.65
2023-03-17T14:12:35.573Z,201.97
2023-03-17T14:13:35.532Z,204.64
2023-03-17T14:14:35.509Z,206.93
2023-03-17T14:15:35.485Z,208.55
2023-03-17T14:16:35.492Z,210.88
2023-03-17T14:17:35.461Z,215.04
2023-03-17T14:18:35.407Z,214.93
2023-03-17T14:19:35.382Z,215.43
2023-03-17T14:20:35.377Z,217.74
2023-03-17T14:21:35.324Z,216.46
2023-03-17T14:22:35.312Z,217.70
2023-03-17T14:23:35.283Z,218.42
2023-03-17T14:24:35.260Z,218.54
2023-03-17T14:25:35.237Z,220.44
2023-03-17T14:26:35.215Z,219.82
2023-03-17T14:27:35.194Z,223.66
2023-03-17T14:28:35.166Z,221.11
2023-03-17T14:29:35.139Z,220.57
2023-03-17T14:30:35.146Z,221.92
2023-03-17T14:31:35.160Z,221.96
2023-03-17T14:32:35.133Z,221.57
2023-03-17T14:33:35.066Z,222.54
2023-03-17T14:34:35.032Z,222.59
2023-03-17T14:35:35.060Z,225.50
2023-03-17T14:36:34.969Z,225.90
2023-03-17T14:37:34.949Z,227.08
2023-03-17T14:38:34.923Z,226.26
2023-03-17T14:39:34.917Z,226.37
2023-03-17T14:40:34.885Z,224.91
2023-03-17T14:41:34.853Z,215.45
2023-03-17T14:42:34.821Z,218.12
2023-03-17T14:43:34.813Z,224.47
2023-03-17T14:44:34.787Z,226.94
2023-03-17T14:45:34.880Z,229.18
2023-03-17T14:46:34.752Z,232.42
2023-03-17T14:47:34.752Z,235.87
2023-03-17T14:48:34.685Z,238.18
2023-03-17T14:49:34.664Z,240.04
2023-03-17T14:50:34.647Z,244.30
2023-03-17T14:51:34.597Z,246.29
2023-03-17T14:52:34.597Z,247.58
2023-03-17T14:53:34.551Z,248.31
2023-03-17T14:54:34.519Z,248.42
2023-03-17T14:55:34.526Z,249.13
2023-03-17T14:56:34.468Z,250.48
2023-03-17T14:57:34.440Z,250.21
2023-03-17T14:58:34.422Z,252.87
2023-03-17T14:59:34.401Z,249.95
2023-03-17T15:00:34.392Z,245.79
2023-03-17T15:01:34.427Z,249.47
2023-03-17T15:02:34.584Z,249.32
2023-03-17T15:03:34.294Z,249.20
2023-03-17T15:04:34.273Z,250.00
2023-03-17T15:05:34.225Z,249.66
2023-03-17T15:06:36.836Z,249.77
2023-03-17T15:07:34.166Z,249.86
2023-03-17T15:08:36.215Z,250.67
2023-03-17T15:09:34.104Z,252.13
2023-03-17T15:10:34.480Z,254.88
2023-03-17T15:11:34.067Z,257.64
2023-03-17T15:12:34.034Z,251.49
2023-03-17T15:13:34.003Z,250.06
2023-03-17T15:14:33.962Z,249.94
2023-03-17T15:15:33.956Z,249.85
2023-03-17T15:16:33.948Z,250.00
2023-03-17T15:17:33.888Z,249.72
2023-03-17T15:18:33.853Z,249.10
2023-03-17T15:19:33.844Z,249.93
2023-03-17T15:20:34.098Z,249.99
2023-03-17T15:21:33.899Z,248.46
2023-03-17T15:22:33.931Z,248.26
2023-03-17T15:23:33.955Z,249.04
2023-03-17T15:24:33.991Z,249.42
2023-03-17T15:25:34.036Z,249.31
2023-03-17T15:26:34.078Z,249.65
2023-03-17T15:27:34.097Z,249.72